KTC weather

Katiola Airport
Katiola, Vallée du Bandama, Côte d'Ivoire

Public forecast

Using degrees Celsius for public forecast. Weather courtesy of forecast.io.

Closest aviation weather report (METAR) to Katiola Airport

Closest report is Bouaké Airport, 23.7 nm (43.8 km) S. Retrieved 2020/07/07 08:00 UTC (11 minutes ago):

DIBK 070800Z 20006KT 6000 FEW005 OVC010 22/22 Q1015 NSW NOSIG

Closest aviation forecast (TAF) to Katiola Airport

Closest forecast is Bouaké Airport, 23.7 nm (43.8 km) S. Retrieved 2020/07/07 06:33 UTC (2 hours ago):

TAF DIBK 070512Z 0706/0806 VRB03KT 8000 SCT010 PROB40 TEMPO 0706/0708 4000 BR BKN010 PROB40 0709/0713 BKN012 BECMG 0710/0712 23010KT